Time;durP1;ratioP1;P1;durP2;ratioP2;P2;SDS_P1;SDS_P2;PMS_P1;PMS_P2;Temp;Humidity;BMP_temperature;BMP_pressure;BME280_temperature;BME280_humidity;BME280_pressure;Samples;Min_cycle;Max_cycle;Signal;HPM_P1;HPM_P2
2022/04/06 00:00:23;;;;;;;14.38;5.60;;;;;;;11.81;59.64;100322.63;5098418;27;20171;-57
2022/04/06 00:02:49;;;;;;;13.32;5.70;;;;;;;11.80;59.36;100324.34;5097171;27;20448;-56
2022/04/06 00:05:14;;;;;;;13.80;5.85;;;;;;;11.80;59.09;100326.91;5098802;27;20030;-57
2022/04/06 00:07:41;;;;;;;12.80;5.13;;;;;;;11.81;59.40;100312.28;5097514;27;20015;-57
2022/04/06 00:10:08;;;;;;;12.23;5.33;;;;;;;11.81;59.30;100312.28;5099221;27;20348;-57
2022/04/06 00:12:35;;;;;;;10.18;5.30;;;;;;;11.81;59.31;100312.28;5099184;27;20272;-57
2022/04/06 00:15:01;;;;;;;10.33;5.57;;;;;;;11.81;59.39;100307.13;5098194;27;20034;-57
2022/04/06 00:17:27;;;;;;;11.73;5.15;;;;;;;11.80;59.32;100315.72;5097605;27;20028;-57
2022/04/06 00:19:52;;;;;;;13.13;5.63;;;;;;;11.80;59.57;100310.53;5098553;27;20023;-57
2022/04/06 00:22:17;;;;;;;15.30;5.43;;;;;;;11.79;59.40;100304.53;5098298;27;20028;-57
2022/04/06 00:24:43;;;;;;;14.15;5.10;;;;;;;11.80;59.39;100306.25;5098135;27;20023;-57
2022/04/06 00:27:09;;;;;;;10.13;4.57;;;;;;;11.79;59.48;100304.53;5097764;27;20115;-57
2022/04/06 00:29:34;;;;;;;10.88;5.38;;;;;;;11.80;59.49;100306.25;5098319;27;20067;-57
2022/04/06 00:32:00;;;;;;;15.45;5.57;;;;;;;11.80;59.14;100311.44;5098149;27;20023;-57
2022/04/06 00:37:10;;;;;;;10.63;4.60;;;;;;;11.78;59.21;100302.78;5065344;27;20045;-56
2022/04/06 00:39:36;;;;;;;12.43;5.00;;;;;;;11.79;59.13;100296.78;5096600;27;20027;-57
2022/04/06 00:42:01;;;;;;;10.43;4.75;;;;;;;11.79;59.05;100294.19;5097555;27;20019;-57
2022/04/06 00:44:28;;;;;;;12.63;5.32;;;;;;;11.79;59.26;100295.91;5096807;27;20023;-57
2022/04/06 00:46:53;;;;;;;11.25;4.55;;;;;;;11.79;59.22;100303.66;5098035;27;20431;-57
2022/04/06 00:49:19;;;;;;;11.57;5.15;;;;;;;11.78;59.16;100292.44;5096621;27;20118;-57
2022/04/06 00:51:48;;;;;;;11.90;4.60;;;;;;;11.78;59.18;100297.63;5091405;27;20027;-57
2022/04/06 00:54:15;;;;;;;12.07;5.05;;;;;;;11.77;59.19;100295.00;5092265;27;20020;-57
2022/04/06 00:56:42;;;;;;;12.48;4.75;;;;;;;11.77;59.16;100293.28;5089864;27;20344;-57
2022/04/06 00:59:09;;;;;;;13.45;4.50;;;;;;;11.79;58.94;100294.19;5094229;27;23135;-57
2022/04/06 01:01:35;;;;;;;12.23;5.13;;;;;;;11.77;59.29;100295.88;5097711;27;20107;-57
2022/04/06 01:04:00;;;;;;;10.00;4.63;;;;;;;11.78;59.14;100283.84;5096468;27;20114;-57
2022/04/06 01:06:26;;;;;;;11.80;4.85;;;;;;;11.77;59.15;100280.38;5098100;28;20139;-57
2022/04/06 01:08:52;;;;;;;7.03;4.10;;;;;;;11.78;59.10;100282.13;5095866;28;20368;-57
2022/04/06 01:11:18;;;;;;;13.02;4.53;;;;;;;11.77;59.19;100277.78;5098939;28;20152;-57
2022/04/06 01:13:45;;;;;;;11.57;4.80;;;;;;;11.77;58.86;100279.53;5096292;28;20027;-57
2022/04/06 01:16:10;;;;;;;13.57;5.10;;;;;;;11.76;59.11;100273.50;5079187;28;20028;-57
2022/04/06 01:18:36;;;;;;;11.52;4.72;;;;;;;11.77;59.02;100275.22;5097478;28;20015;-57
2022/04/06 01:21:02;;;;;;;11.70;4.95;;;;;;;11.77;58.92;100275.22;5097661;28;20106;-57
2022/04/06 01:23:28;;;;;;;11.80;5.00;;;;;;;11.77;59.12;100271.78;5096974;28;20031;-57
2022/04/06 01:25:53;;;;;;;13.18;4.80;;;;;;;11.78;59.09;100276.09;5097235;28;20033;-57
2022/04/06 01:28:18;;;;;;;10.98;4.35;;;;;;;11.77;59.03;100274.38;5096669;28;20055;-57
2022/04/06 01:30:44;;;;;;;11.70;4.07;;;;;;;11.76;59.13;100264.88;5096024;28;20055;-57
2022/04/06 01:33:09;;;;;;;11.35;4.72;;;;;;;11.77;59.06;100271.78;5096472;28;20175;-57
2022/04/06 01:35:38;;;;;;;12.07;4.22;;;;;;;11.76;59.11;100270.91;5098648;28;20059;-57
2022/04/06 01:38:06;;;;;;;7.80;4.03;;;;;;;11.77;59.20;100267.47;5097825;28;20034;-57
2022/04/06 01:40:33;;;;;;;10.25;4.22;;;;;;;11.77;58.95;100267.47;5097838;28;20336;-57
2022/04/06 01:42:58;;;;;;;10.18;4.30;;;;;;;11.77;59.08;100266.63;5096623;28;20035;-57
2022/04/06 01:45:24;;;;;;;9.60;4.03;;;;;;;11.77;58.85;100264.88;5096681;28;20024;-57
2022/04/06 01:47:49;;;;;;;11.93;4.50;;;;;;;11.77;58.86;100259.72;5096507;28;20058;-57
2022/04/06 01:52:58;;;;;;;11.20;3.92;;;;;;;11.77;58.87;100261.44;5096534;28;20047;-57
2022/04/06 01:55:24;;;;;;;11.25;4.18;;;;;;;11.77;58.92;100261.44;5098582;27;20019;-57
2022/04/06 01:57:49;;;;;;;12.98;4.35;;;;;;;11.76;58.92;100258.00;5100083;27;21372;-57
2022/04/06 02:00:17;;;;;;;13.80;4.20;;;;;;;11.76;58.84;100257.13;5100247;27;20123;-57
2022/04/06 02:02:48;;;;;;;14.68;4.38;;;;;;;11.76;58.96;100257.13;5091609;27;20028;-57
2022/04/06 02:05:15;;;;;;;10.35;3.58;;;;;;;11.76;58.76;100258.00;5093148;27;20015;-57
2022/04/06 02:07:42;;;;;;;11.68;3.67;;;;;;;11.75;58.71;100250.22;5094613;27;20070;-57
2022/04/06 02:10:08;;;;;;;10.43;3.55;;;;;;;11.76;58.91;100252.84;5099838;27;20043;-57
2022/04/06 02:12:34;;;;;;;11.68;4.25;;;;;;;11.75;58.74;100253.69;5101220;27;20440;-57
2022/04/06 02:15:00;;;;;;;11.73;3.90;;;;;;;11.75;58.74;100251.09;5101421;27;20084;-57
2022/04/06 02:17:27;;;;;;;10.55;3.45;;;;;;;11.76;58.82;100252.84;5100461;27;20032;-57
2022/04/06 02:19:53;;;;;;;8.48;4.00;;;;;;;11.76;58.84;100252.84;5099610;27;21029;-57
2022/04/06 02:22:19;;;;;;;8.80;3.83;;;;;;;11.75;58.63;100256.28;5100226;27;20016;-57
2022/04/06 02:24:45;;;;;;;9.00;3.30;;;;;;;11.74;58.64;100244.19;5078308;27;20049;-57
2022/04/06 02:27:10;;;;;;;10.77;3.63;;;;;;;11.75;58.75;100245.06;5100125;27;20027;-57
2022/04/06 02:29:37;;;;;;;11.95;3.67;;;;;;;11.74;58.68;100239.03;5100444;27;20098;-57
2022/04/06 02:32:04;;;;;;;9.77;3.58;;;;;;;11.75;58.82;100235.63;5099976;27;20027;-57
2022/04/06 02:34:30;;;;;;;13.23;4.22;;;;;;;11.75;58.82;100251.09;5101775;27;20031;-57
2022/04/06 02:36:55;;;;;;;9.85;3.67;;;;;;;11.75;58.96;100235.63;5100202;27;20915;-58
2022/04/06 02:39:20;;;;;;;13.57;3.83;;;;;;;11.73;58.76;100232.13;5097866;27;20047;-57
2022/04/06 02:41:46;;;;;;;9.60;3.60;;;;;;;11.73;58.62;100234.72;5099950;27;20027;-57
2022/04/06 02:44:11;;;;;;;10.60;3.63;;;;;;;11.74;58.61;100228.72;5099265;27;20031;-58
2022/04/06 02:46:36;;;;;;;12.38;4.07;;;;;;;11.73;58.39;100232.13;5100825;27;20080;-57
2022/04/06 02:49:02;;;;;;;11.48;4.13;;;;;;;11.73;58.50;100229.56;5100437;27;20460;-57
2022/04/06 02:51:27;;;;;;;11.95;3.78;;;;;;;11.73;58.42;100226.97;5100804;27;20034;-60
2022/04/06 02:53:53;;;;;;;8.98;3.35;;;;;;;11.74;58.29;100228.72;5099862;27;20024;-60
2022/04/06 02:56:18;;;;;;;9.57;3.50;;;;;;;11.74;58.60;100228.72;5099429;27;20090;-60
2022/04/06 02:58:43;;;;;;;10.70;3.55;;;;;;;11.73;58.71;100221.81;5099093;27;20026;-58
2022/04/06 03:01:09;;;;;;;12.20;3.78;;;;;;;11.73;58.40;100221.81;5100271;27;20039;-60
2022/04/06 03:03:34;;;;;;;9.30;3.40;;;;;;;11.73;58.22;100211.47;5099877;27;20034;-60
2022/04/06 03:06:01;;;;;;;9.10;3.90;;;;;;;11.71;58.54;100208.03;5100467;27;20066;-60
2022/04/06 03:08:26;;;;;;;8.73;3.67;;;;;;;11.73;58.21;100210.63;5099221;27;20047;-60
2022/04/06 03:10:52;;;;;;;6.00;2.70;;;;;;;11.73;58.48;100206.31;5099449;27;20292;-60
2022/04/06 03:13:17;;;;;;;12.70;3.55;;;;;;;11.73;58.51;100201.16;5099341;27;20046;-60
2022/04/06 03:15:42;;;;;;;10.25;3.60;;;;;;;11.73;58.33;100205.47;5097733;27;20023;-60
2022/04/06 03:18:08;;;;;;;9.73;3.53;;;;;;;11.72;58.26;100191.66;5080797;28;20360;-59
2022/04/06 03:20:34;;;;;;;9.02;3.53;;;;;;;11.72;58.38;100193.41;5091028;27;20036;-60
2022/04/06 03:22:59;;;;;;;8.55;2.95;;;;;;;11.72;58.49;100189.09;5096701;27;20045;-60
2022/04/06 03:25:24;;;;;;;10.00;2.80;;;;;;;11.72;58.31;100189.09;5096747;27;20027;-60
2022/04/06 03:27:50;;;;;;;10.32;3.03;;;;;;;11.72;58.41;100183.94;5098739;27;20027;-60
2022/04/06 03:30:15;;;;;;;6.70;2.88;;;;;;;11.72;58.32;100185.66;5098984;27;20039;-60
2022/04/06 03:32:41;;;;;;;12.00;3.55;;;;;;;11.71;58.39;100174.47;5098004;27;20057;-60
2022/04/06 03:35:08;;;;;;;7.55;2.90;;;;;;;11.70;58.37;100171.00;5096920;27;20024;-59
2022/04/06 03:37:34;;;;;;;13.00;3.55;;;;;;;11.71;58.26;100171.88;5098523;27;20575;-60
2022/04/06 03:39:59;;;;;;;8.50;2.75;;;;;;;11.70;58.31;100165.84;5096826;27;20019;-60
2022/04/06 03:42:25;;;;;;;8.98;3.15;;;;;;;11.71;58.23;100158.97;5099990;27;20370;-59
2022/04/06 03:44:50;;;;;;;6.60;2.88;;;;;;;11.71;58.11;100164.16;5098107;27;20473;-60
2022/04/06 03:47:16;;;;;;;7.47;2.85;;;;;;;11.70;58.28;100155.50;5098450;27;20019;-60
2022/04/06 03:49:42;;;;;;;6.72;2.63;;;;;;;11.70;58.23;100149.50;5098619;27;20024;-60
2022/04/06 03:52:07;;;;;;;8.45;2.80;;;;;;;11.70;58.22;100158.09;5098939;27;20023;-60
2022/04/06 03:54:33;;;;;;;7.03;2.70;;;;;;;11.70;58.35;100157.25;5099021;27;20080;-60
2022/04/06 03:56:58;;;;;;;5.93;2.80;;;;;;;11.70;58.25;100159.81;5079693;28;20051;-60
2022/04/06 03:59:24;;;;;;;9.02;2.63;;;;;;;11.69;58.26;100158.94;5098384;27;20028;-60
2022/04/06 04:01:49;;;;;;;6.07;2.85;;;;;;;11.70;58.18;100159.81;5098732;27;20016;-60
2022/04/06 04:04:14;;;;;;;9.32;2.67;;;;;;;11.69;58.10;100164.09;5098238;27;20020;-60
2022/04/06 04:06:40;;;;;;;8.15;3.05;;;;;;;11.69;57.97;100161.53;5099564;27;20024;-59
2022/04/06 04:09:05;;;;;;;6.05;2.47;;;;;;;11.70;58.15;100154.66;5098787;27;20073;-60
2022/04/06 04:11:31;;;;;;;8.90;3.03;;;;;;;11.70;58.09;100157.25;5098587;27;20050;-60
2022/04/06 04:13:57;;;;;;;11.82;2.60;;;;;;;11.69;58.14;100158.09;5097336;27;20088;-60
2022/04/06 04:16:23;;;;;;;8.57;2.67;;;;;;;11.69;58.11;100158.09;5098730;27;20455;-60
2022/04/06 04:18:49;;;;;;;5.95;2.42;;;;;;;11.68;57.90;100157.22;5099281;27;20366;-59
2022/04/06 04:21:32;;;;;;;6.82;2.55;;;;;;;11.69;58.07;100152.91;5100040;27;20109;-60
2022/04/06 04:24:00;;;;;;;9.00;3.05;;;;;;;11.68;57.90;100162.38;5098709;27;20419;-60
2022/04/06 04:26:26;;;;;;;5.30;2.30;;;;;;;11.68;57.82;100148.59;5094384;27;20028;-60
2022/04/06 04:28:51;;;;;;;6.45;2.20;;;;;;;11.68;58.32;100141.75;5090530;27;20039;-60
2022/04/06 04:31:17;;;;;;;5.63;2.47;;;;;;;11.69;58.00;100151.19;5087158;27;20016;-60
2022/04/06 04:33:42;;;;;;;9.85;2.75;;;;;;;11.69;57.85;100147.75;5075298;27;20049;-59
2022/04/06 04:36:08;;;;;;;11.75;2.50;;;;;;;11.68;57.85;100143.44;5096140;27;20015;-60
2022/04/06 04:38:33;;;;;;;9.45;2.30;;;;;;;11.68;57.76;100146.00;5096800;27;20023;-60
2022/04/06 04:40:58;;;;;;;9.60;2.53;;;;;;;11.67;57.76;100142.56;5093295;27;20046;-60
2022/04/06 04:43:25;;;;;;;9.38;2.60;;;;;;;11.68;57.93;100140.84;5098073;27;20410;-60
2022/04/06 04:45:51;;;;;;;9.13;2.55;;;;;;;11.66;57.80;100138.25;5097233;27;20519;-59
2022/04/06 04:48:16;;;;;;;8.98;2.80;;;;;;;11.67;57.90;100136.53;5097395;27;20040;-60
2022/04/06 04:50:42;;;;;;;8.27;2.42;;;;;;;11.67;57.83;100133.94;5097089;28;20438;-60
2022/04/06 04:53:07;;;;;;;8.32;2.83;;;;;;;11.67;57.86;100129.69;5096901;28;20031;-60
2022/04/06 04:55:33;;;;;;;11.45;2.75;;;;;;;11.67;57.81;100124.50;5098494;27;20043;-59
2022/04/06 04:57:59;;;;;;;7.10;2.65;;;;;;;11.68;57.86;100135.69;5097581;28;20015;-60
2022/04/06 05:00:24;;;;;;;9.38;3.15;;;;;;;11.67;57.79;100126.22;5097994;27;20034;-60
2022/04/06 05:02:50;;;;;;;8.20;2.50;;;;;;;11.68;57.88;100120.19;5097989;27;20051;-60
2022/04/06 05:05:15;;;;;;;8.68;2.70;;;;;;;11.68;57.75;100122.78;5097077;27;20068;-60
2022/04/06 05:07:40;;;;;;;7.13;2.40;;;;;;;11.67;57.57;100127.09;5097425;28;20023;-60
2022/04/06 05:10:07;;;;;;;6.70;2.60;;;;;;;11.66;57.71;100116.75;5096318;28;20051;-60
2022/04/06 05:12:33;;;;;;;9.97;2.97;;;;;;;11.67;57.67;100123.63;5094276;28;20095;-60
2022/04/06 05:15:01;;;;;;;8.13;3.15;;;;;;;11.67;57.75;100131.38;5095374;28;20031;-61
2022/04/06 05:17:28;;;;;;;4.63;2.42;;;;;;;11.67;57.33;100118.47;5094920;28;20042;-60
2022/04/06 05:19:54;;;;;;;7.95;2.90;;;;;;;11.66;57.38;100121.91;5096030;28;20462;-58
2022/04/06 05:22:19;;;;;;;8.50;2.85;;;;;;;11.67;57.38;100118.47;5094300;28;20027;-60
2022/04/06 05:24:45;;;;;;;7.15;2.22;;;;;;;11.67;57.24;100118.47;5096578;28;20038;-60
2022/04/06 05:27:10;;;;;;;7.25;2.47;;;;;;;11.66;57.31;100112.44;5095346;28;20042;-60
2022/04/06 05:29:36;;;;;;;9.43;2.60;;;;;;;11.67;57.41;100114.19;5093398;28;20479;-60
2022/04/06 05:32:02;;;;;;;10.07;2.50;;;;;;;11.67;57.44;100108.13;5098384;27;20028;-60
2022/04/06 05:34:28;;;;;;;13.48;3.38;;;;;;;11.65;57.20;100104.69;5096330;28;20020;-60
2022/04/06 05:36:53;;;;;;;11.48;3.10;;;;;;;11.66;57.52;100106.44;5095688;27;20024;-60
2022/04/06 05:39:19;;;;;;;8.25;2.28;;;;;;;11.66;57.21;100102.13;5094225;27;20032;-60
2022/04/06 05:41:44;;;;;;;8.43;2.53;;;;;;;11.66;57.30;100096.09;5093955;27;20055;-60
2022/04/06 05:44:09;;;;;;;8.05;2.38;;;;;;;11.67;57.35;100103.84;5091419;27;20098;-60
2022/04/06 05:46:35;;;;;;;8.60;2.92;;;;;;;11.67;56.99;100102.97;5093317;27;20039;-60
2022/04/06 05:49:00;;;;;;;8.63;2.78;;;;;;;11.67;57.06;100102.97;5092891;28;20092;-60
2022/04/06 05:51:26;;;;;;;7.15;2.20;;;;;;;11.66;57.14;100102.13;5094967;27;20084;-59
2022/04/06 05:53:51;;;;;;;7.35;2.63;;;;;;;11.66;56.95;100102.13;5093655;27;20305;-60
2022/04/06 05:56:16;;;;;;;7.80;2.55;;;;;;;11.66;57.04;100101.28;5100924;27;20039;-61
2022/04/06 05:58:43;;;;;;;7.40;2.25;;;;;;;11.66;56.99;100102.13;5098287;27;20025;-60
2022/04/06 06:01:08;;;;;;;7.65;2.63;;;;;;;11.66;57.29;100101.28;5097366;28;20023;-60
2022/04/06 06:03:34;;;;;;;7.70;2.28;;;;;;;11.65;57.26;100100.38;5098827;28;20023;-60
2022/04/06 06:05:59;;;;;;;7.88;2.70;;;;;;;11.65;57.30;100102.09;5098696;28;20106;-60
2022/04/06 06:08:24;;;;;;;8.35;2.85;;;;;;;11.66;57.35;100107.28;5098379;28;20173;-60
2022/04/06 06:10:50;;;;;;;9.57;2.70;;;;;;;11.66;57.42;100107.28;5098164;28;20030;-59
2022/04/06 06:13:15;;;;;;;10.25;2.95;;;;;;;11.67;57.31;100113.28;5099680;27;20030;-60
2022/04/06 06:15:41;;;;;;;11.10;2.70;;;;;;;11.68;57.30;100104.72;5100158;27;20107;-60
2022/04/06 06:18:07;;;;;;;11.02;2.33;;;;;;;11.68;57.57;100109.88;5081224;28;20015;-60
2022/04/06 06:20:32;;;;;;;9.68;2.30;;;;;;;11.67;57.43;100114.19;5100316;27;20024;-60
2022/04/06 06:22:58;;;;;;;6.78;2.70;;;;;;;11.68;57.56;100108.19;5080129;28;20116;-60
2022/04/06 06:25:23;;;;;;;8.05;2.50;;;;;;;11.70;57.47;100113.34;5078314;28;20036;-60
2022/04/06 06:27:48;;;;;;;8.20;2.00;;;;;;;11.70;57.53;100113.34;5098724;28;20057;-60
2022/04/06 06:30:14;;;;;;;7.57;2.33;;;;;;;11.70;57.61;100110.78;5097341;28;20024;-60
2022/04/06 06:32:40;;;;;;;8.38;2.30;;;;;;;11.70;57.55;100113.34;5098020;28;20027;-60
2022/04/06 06:35:08;;;;;;;4.93;2.10;;;;;;;11.71;57.71;100120.25;5099031;27;20027;-60
2022/04/06 06:37:34;;;;;;;8.10;1.92;;;;;;;11.71;57.61;100109.94;5099656;27;20337;-60
2022/04/06 06:39:59;;;;;;;7.38;2.30;;;;;;;11.71;57.52;100104.78;5080223;28;20445;-60
2022/04/06 06:42:25;;;;;;;6.65;2.40;;;;;;;11.71;57.42;100104.78;5097995;28;20027;-60
2022/04/06 06:44:51;;;;;;;5.63;2.10;;;;;;;11.72;57.55;100111.66;5098883;28;20093;-60
2022/04/06 06:47:16;;;;;;;8.10;2.20;;;;;;;11.72;57.74;100095.31;5080621;28;20445;-60
2022/04/06 06:49:46;;;;;;;5.25;2.55;;;;;;;11.71;57.53;100094.44;5097382;27;20451;-60
2022/04/06 06:52:13;;;;;;;5.82;2.10;;;;;;;11.71;57.41;100099.63;5098598;28;20016;-60
2022/04/06 06:54:39;;;;;;;5.38;1.90;;;;;;;11.72;57.73;100095.31;5099044;28;20015;-60
2022/04/06 06:57:05;;;;;;;5.63;1.92;;;;;;;11.71;57.38;100089.28;5099512;28;20095;-60
2022/04/06 06:59:30;;;;;;;4.95;1.95;;;;;;;11.72;57.43;100078.09;5097732;28;20094;-60
2022/04/06 07:01:55;;;;;;;5.30;1.60;;;;;;;11.72;57.45;100096.16;5098941;28;20069;-60
2022/04/06 07:04:24;;;;;;;4.40;1.92;;;;;;;11.72;57.67;100096.16;5096531;28;20329;-60
2022/04/06 07:06:50;;;;;;;5.93;1.70;;;;;;;11.72;57.38;100093.56;5099196;28;20135;-60
2022/04/06 07:09:16;;;;;;;6.80;1.70;;;;;;;11.72;57.40;100096.16;5099145;27;20036;-60
2022/04/06 07:11:41;;;;;;;5.43;2.15;;;;;;;11.72;57.31;100090.13;5098075;27;20051;-60
2022/04/06 07:14:07;;;;;;;5.57;2.00;;;;;;;11.72;57.43;100091.00;5097108;27;20028;-60
2022/04/06 07:16:32;;;;;;;5.88;1.52;;;;;;;11.72;57.19;100088.41;5099235;27;20355;-60
2022/04/06 07:18:57;;;;;;;6.28;1.77;;;;;;;11.72;57.52;100085.84;5095351;28;20451;-60
2022/04/06 07:21:23;;;;;;;7.40;2.25;;;;;;;11.72;57.44;100074.66;5095804;27;20580;-60
2022/04/06 07:23:48;;;;;;;10.27;2.05;;;;;;;11.72;57.59;100075.50;5098584;27;20098;-60
2022/04/06 07:26:16;;;;;;;4.43;1.40;;;;;;;11.73;57.24;100077.25;5097813;28;20336;-60
2022/04/06 07:28:45;;;;;;;3.78;1.60;;;;;;;11.72;57.27;100072.06;5097440;27;20034;-60
2022/04/06 07:31:11;;;;;;;7.05;1.75;;;;;;;11.72;57.31;100074.66;5094207;28;20016;-60
2022/04/06 07:33:37;;;;;;;3.92;1.48;;;;;;;11.72;57.30;100062.59;5098120;28;20016;-60
2022/04/06 07:36:07;;;;;;;4.25;1.63;;;;;;;11.71;57.24;100068.63;5098182;28;20098;-60
2022/04/06 07:38:32;;;;;;;7.55;1.70;;;;;;;11.72;57.01;100059.16;5096111;28;20047;-60
2022/04/06 07:40:58;;;;;;;5.70;1.58;;;;;;;11.72;57.12;100054.00;5095732;28;20116;-60
2022/04/06 07:43:24;;;;;;;6.82;2.10;;;;;;;11.72;57.35;100054.00;5097075;27;20444;-60
2022/04/06 07:45:49;;;;;;;5.72;1.65;;;;;;;11.72;57.10;100049.69;5096914;28;20027;-60
2022/04/06 07:48:15;;;;;;;6.53;1.95;;;;;;;11.72;57.08;100044.53;5096360;28;20026;-60
2022/04/06 07:50:40;;;;;;;6.18;1.73;;;;;;;11.73;57.04;100041.09;5097649;27;20020;-60
2022/04/06 07:53:05;;;;;;;7.18;2.30;;;;;;;11.72;56.94;100036.78;5096276;28;20451;-60
2022/04/06 07:55:31;;;;;;;9.05;2.60;;;;;;;11.73;57.12;100038.53;5097330;28;20102;-60
2022/04/06 07:57:56;;;;;;;12.50;2.35;;;;;;;11.76;57.21;100030.84;5097222;27;20085;-59
2022/04/06 08:00:22;;;;;;;8.05;2.08;;;;;;;11.75;57.18;100018.78;5097444;28;20413;-58
2022/04/06 08:02:49;;;;;;;8.05;2.38;;;;;;;11.77;57.13;100032.53;5097389;27;20080;-60
2022/04/06 08:05:15;;;;;;;6.55;1.90;;;;;;;11.77;57.22;100032.53;5097828;27;20455;-60
2022/04/06 08:07:43;;;;;;;8.73;2.55;;;;;;;11.76;57.06;100036.00;5097801;27;20011;-60
2022/04/06 08:10:11;;;;;;;3.88;1.80;;;;;;;11.76;56.96;100041.16;5096369;27;20452;-60
2022/04/06 08:12:36;;;;;;;;;;;;;;;11.88;57.08;100034.38;5097532;28;20027;-60
2022/04/06 08:15:03;;;;;;;10.52;2.55;;;;;;;11.77;57.26;100032.53;5097752;28;19918;-60
2022/04/06 08:17:32;;;;;;;7.00;2.10;;;;;;;11.77;57.33;100035.13;5096372;28;20077;-60
2022/04/06 08:19:57;;;;;;;10.40;2.83;;;;;;;11.76;57.53;100041.16;5096375;28;20023;-60
2022/04/06 08:22:23;;;;;;;7.95;2.28;;;;;;;11.77;57.33;100044.59;5096666;28;20122;-59
2022/04/06 08:24:49;;;;;;;6.20;2.00;;;;;;;11.75;57.50;100039.44;5097529;28;20102;-60
2022/04/06 08:27:15;;;;;;;7.15;2.40;;;;;;;11.75;57.21;100035.97;5096942;28;20076;-60
2022/04/06 08:29:40;;;;;;;5.57;1.60;;;;;;;11.74;57.19;100042.84;5098882;27;20032;-60
2022/04/06 08:32:06;;;;;;;7.13;2.15;;;;;;;11.76;57.31;100050.59;5094593;28;20031;-60
2022/04/06 08:34:31;;;;;;;6.15;2.20;;;;;;;11.74;57.43;100048.00;5099548;27;20027;-57
2022/04/06 08:36:57;;;;;;;7.32;2.15;;;;;;;11.73;57.46;100048.00;5093339;28;20004;-57
2022/04/06 08:39:22;;;;;;;6.03;2.03;;;;;;;11.73;57.30;100035.94;5095980;28;20068;-58
2022/04/06 08:41:47;;;;;;;7.03;2.30;;;;;;;11.73;57.30;100033.38;5096081;28;20024;-57
2022/04/06 08:44:13;;;;;;;8.48;1.88;;;;;;;11.73;57.36;100038.53;5096140;28;20083;-57
2022/04/06 08:46:40;;;;;;;6.05;2.05;;;;;;;11.73;57.46;100033.38;5097502;27;20020;-57
2022/04/06 08:49:06;;;;;;;7.07;2.20;;;;;;;11.74;57.44;100029.94;5095420;27;20814;-57
2022/04/06 08:51:34;;;;;;;7.32;1.63;;;;;;;11.74;57.44;100035.09;5095928;28;20032;-58
2022/04/06 08:53:59;;;;;;;4.15;1.85;;;;;;;11.74;57.28;100019.63;5096011;28;20034;-57
2022/04/06 08:56:25;;;;;;;5.75;2.00;;;;;;;11.76;57.26;100023.09;5096530;28;20024;-57
2022/04/06 08:58:50;;;;;;;5.38;1.80;;;;;;;11.76;57.44;100027.38;5094621;28;20077;-57
2022/04/06 09:01:16;;;;;;;3.95;1.80;;;;;;;11.76;57.25;100032.53;5095825;28;20135;-57
2022/04/06 09:03:41;;;;;;;6.32;2.17;;;;;;;11.74;57.52;100029.94;5095756;28;20012;-57
2022/04/06 09:06:12;;;;;;;6.32;2.40;;;;;;;11.76;57.63;100036.00;5096012;28;20023;-57
2022/04/06 09:08:45;;;;;;;6.20;2.10;;;;;;;11.76;57.60;100030.84;5095468;28;20044;-57
2022/04/06 09:11:19;;;;;;;7.05;1.98;;;;;;;11.77;57.47;100037.72;5097101;28;20032;-57
2022/04/06 09:13:47;;;;;;;7.00;1.90;;;;;;;11.76;57.25;100036.00;5095149;28;20028;-57
2022/04/06 09:16:17;;;;;;;7.13;1.80;;;;;;;11.76;57.36;100040.28;5097397;28;20027;-57
2022/04/06 09:18:45;;;;;;;7.45;1.83;;;;;;;11.77;57.27;100032.53;5094942;28;20027;-58
2022/04/06 09:21:19;;;;;;;3.45;1.73;;;;;;;11.77;57.47;100027.38;5095806;28;20115;-57
2022/04/06 09:23:49;;;;;;;5.18;2.05;;;;;;;11.77;57.43;100026.53;5097062;28;20032;-56
2022/04/06 09:26:20;;;;;;;6.35;2.00;;;;;;;11.77;57.33;100027.38;5095402;28;20111;-57
2022/04/06 09:28:47;;;;;;;7.65;2.13;;;;;;;11.77;57.37;100022.22;5095166;28;20027;-57
2022/04/06 09:31:16;;;;;;;3.53;1.63;;;;;;;11.77;57.18;100027.38;5096020;28;20092;-57
2022/04/06 09:33:54;;;;;;;7.65;2.10;;;;;;;11.78;57.13;100028.28;5095250;28;20379;-57
2022/04/06 09:36:20;;;;;;;3.05;1.58;;;;;;;11.76;57.22;100024.78;5096225;28;20020;-57
2022/04/06 09:38:50;;;;;;;4.43;1.52;;;;;;;11.76;57.33;100028.25;5094622;28;20042;-57
2022/04/06 09:41:18;;;;;;;6.35;1.88;;;;;;;11.77;57.41;100029.09;5094307;28;20053;-57
2022/04/06 09:43:50;;;;;;;4.03;1.85;;;;;;;11.76;57.33;100025.69;5095815;28;20023;-57
2022/04/06 09:49:14;;;;;;;8.93;1.95;;;;;;;11.77;57.32;100026.53;5096523;28;20058;-57
2022/04/06 09:51:42;;;;;;;6.10;1.75;;;;;;;11.78;57.06;100023.09;5095567;28;20123;-57
2022/04/06 09:54:12;;;;;;;11.32;2.10;;;;;;;11.78;57.54;100021.38;5095325;28;20012;-57
2022/04/06 09:56:38;;;;;;;4.57;1.90;;;;;;;11.78;57.35;100017.94;5097028;28;20019;-57
2022/04/06 09:59:04;;;;;;;5.18;1.80;;;;;;;11.77;57.22;100022.22;5079178;28;20024;-57
2022/04/06 10:01:36;;;;;;;5.03;1.63;;;;;;;11.78;57.30;100011.06;5093353;28;20027;-57
2022/04/06 10:04:11;;;;;;;5.28;2.00;;;;;;;11.79;57.64;100012.78;5095174;28;20019;-57
2022/04/06 10:06:38;;;;;;;8.27;2.38;;;;;;;11.78;57.65;100013.63;5093192;28;20055;-57
2022/04/06 10:09:09;;;;;;;5.80;2.20;;;;;;;11.79;57.73;100010.22;5094895;28;20035;-57
2022/04/06 10:11:35;;;;;;;6.00;2.10;;;;;;;11.80;57.68;100011.94;5094153;28;20310;-57
2022/04/06 10:14:04;;;;;;;6.50;1.98;;;;;;;11.79;57.62;100010.22;5094646;28;20370;-57
2022/04/06 10:16:30;;;;;;;6.13;2.20;;;;;;;11.78;57.63;100008.47;5097331;28;20088;-57
2022/04/06 10:18:57;;;;;;;7.95;2.33;;;;;;;11.79;57.54;100009.34;5097121;28;20012;-56
2022/04/06 10:21:41;;;;;;;6.83;1.87;;;;;;;11.79;57.70;100005.03;5098098;28;20042;-56
2022/04/06 10:24:10;;;;;;;6.10;2.20;;;;;;;11.80;58.08;100005.91;5080396;28;20054;-56
2022/04/06 10:26:44;;;;;;;6.35;2.10;;;;;;;11.80;57.87;99996.47;5096512;28;20404;-57
2022/04/06 10:29:09;;;;;;;7.43;2.50;;;;;;;11.78;57.65;100003.31;5099086;27;20042;-56
2022/04/06 10:31:35;;;;;;;4.00;1.98;;;;;;;11.80;57.83;100004.19;5097873;28;20420;-57
2022/04/06 10:34:22;;;;;;;6.90;1.95;;;;;;;11.82;57.55;99992.16;5099179;28;20046;-57
2022/04/06 10:37:16;;;;;;;6.47;2.08;;;;;;;11.84;57.59;99987.88;5098655;28;20054;-57
2022/04/06 10:39:50;;;;;;;7.20;2.30;;;;;;;11.81;57.76;99997.31;5074623;27;20065;-56
2022/04/06 10:42:28;;;;;;;5.60;2.50;;;;;;;11.80;57.50;99986.13;5097610;28;20452;-57
2022/04/06 10:44:55;;;;;;;9.02;2.42;;;;;;;11.79;57.81;99984.38;5098709;27;20084;-57
2022/04/06 10:47:22;;;;;;;3.88;1.80;;;;;;;11.78;57.93;99980.06;5097590;28;20019;-57
2022/04/06 10:50:19;;;;;;;4.80;1.70;;;;;;;11.82;57.67;99984.41;5098651;28;20452;-57
2022/04/06 10:52:44;;;;;;;4.97;1.80;;;;;;;11.80;57.92;99973.22;5097241;28;20467;-56
2022/04/06 10:55:14;;;;;;;5.47;1.98;;;;;;;11.80;57.63;99978.38;5096890;27;20024;-57
2022/04/06 10:58:01;;;;;;;4.57;2.10;;;;;;;11.83;58.06;99981.00;5096621;28;20356;-57
2022/04/06 11:00:27;;;;;;;8.68;2.45;;;;;;;11.81;58.11;99982.69;5096445;28;20448;-57
2022/04/06 11:02:54;;;;;;;6.28;2.00;;;;;;;11.80;58.04;99974.91;5098394;28;20091;-57
2022/04/06 11:05:52;;;;;;;5.55;1.85;;;;;;;11.82;57.88;99968.91;5096640;28;20107;-57
2022/04/06 11:11:46;;;;;;;5.68;2.22;;;;;;;11.82;57.80;99971.50;5074635;28;20086;-57
2022/04/06 11:14:14;;;;;;;5.40;1.58;;;;;;;11.80;57.72;99970.63;5074914;28;20471;-57
2022/04/06 11:16:46;;;;;;;4.40;2.10;;;;;;;11.82;58.13;99962.91;5075708;28;20024;-56
2022/04/06 11:19:13;;;;;;;6.65;2.30;;;;;;;11.80;58.44;99965.47;5075644;28;20050;-57
2022/04/06 11:21:49;;;;;;;7.33;2.20;;;;;;;11.83;57.99;99964.66;5078093;28;20093;-57
2022/04/06 11:24:36;;;;;;;4.25;1.70;;;;;;;11.85;57.98;99958.66;5069457;28;20277;-57
2022/04/06 11:27:01;;;;;;;3.55;1.70;;;;;;;11.81;57.81;99954.31;5064627;28;20473;-56
2022/04/06 11:29:28;;;;;;;3.25;1.50;;;;;;;11.80;57.70;99944.81;5067234;28;20024;-57
2022/04/06 11:32:03;;;;;;;7.20;1.75;;;;;;;11.82;57.81;99937.09;5064793;28;20464;-57
2022/04/06 11:34:36;;;;;;;4.13;1.60;;;;;;;11.81;57.62;99946.56;5062704;28;20108;-56